sensor_id;sensor_type;location;lat;lon;timestamp;temperature;humidity
14529;DHT22;7351;51.194;4.098;2023-05-10T00:36:26;19.80;99.90
14529;DHT22;7351;51.194;4.098;2023-05-10T00:44:28;19.80;99.90
14529;DHT22;7351;51.194;4.098;2023-05-10T00:46:56;19.80;99.90
14529;DHT22;7351;51.194;4.098;2023-05-10T00:49:23;19.80;99.90
14529;DHT22;7351;51.194;4.098;2023-05-10T00:51:52;19.80;99.90
14529;DHT22;7351;51.194;4.098;2023-05-10T00:54:19;19.80;99.90
14529;DHT22;7351;51.194;4.098;2023-05-10T00:56:46;19.80;99.90
14529;DHT22;7351;51.194;4.098;2023-05-10T00:59:14;19.80;99.90
14529;DHT22;7351;51.194;4.098;2023-05-10T01:01:43;19.80;99.90
14529;DHT22;7351;51.194;4.098;2023-05-10T01:04:14;19.80;99.90
14529;DHT22;7351;51.194;4.098;2023-05-10T01:06:42;19.80;99.90
14529;DHT22;7351;51.194;4.098;2023-05-10T01:09:11;19.80;99.90
14529;DHT22;7351;51.194;4.098;2023-05-10T01:11:39;19.80;99.90
14529;DHT22;7351;51.194;4.098;2023-05-10T01:14:06;19.80;99.90
14529;DHT22;7351;51.194;4.098;2023-05-10T01:16:40;19.80;99.90
14529;DHT22;7351;51.194;4.098;2023-05-10T01:19:12;19.80;99.90
14529;DHT22;7351;51.194;4.098;2023-05-10T01:21:48;19.80;99.90
14529;DHT22;7351;51.194;4.098;2023-05-10T01:24:34;19.80;99.90
14529;DHT22;7351;51.194;4.098;2023-05-10T01:27:30;19.80;99.90
14529;DHT22;7351;51.194;4.098;2023-05-10T01:30:08;19.80;99.90
14529;DHT22;7351;51.194;4.098;2023-05-10T01:32:48;19.80;99.90
14529;DHT22;7351;51.194;4.098;2023-05-10T01:35:21;19.80;99.90
14529;DHT22;7351;51.194;4.098;2023-05-10T01:37:58;19.80;99.90
14529;DHT22;7351;51.194;4.098;2023-05-10T01:40:29;19.80;99.90
14529;DHT22;7351;51.194;4.098;2023-05-10T01:43:01;19.80;99.90
14529;DHT22;7351;51.194;4.098;2023-05-10T01:45:31;19.80;99.90
14529;DHT22;7351;51.194;4.098;2023-05-10T01:48:06;19.80;99.90
14529;DHT22;7351;51.194;4.098;2023-05-10T01:50:35;19.70;99.90
14529;DHT22;7351;51.194;4.098;2023-05-10T01:53:07;19.80;99.90
14529;DHT22;7351;51.194;4.098;2023-05-10T01:55:41;19.80;99.90
14529;DHT22;7351;51.194;4.098;2023-05-10T01:58:13;19.80;99.90
14529;DHT22;7351;51.194;4.098;2023-05-10T02:00:43;19.80;99.90
14529;DHT22;7351;51.194;4.098;2023-05-10T02:03:15;19.70;99.90
14529;DHT22;7351;51.194;4.098;2023-05-10T02:05:43;19.70;99.90
14529;DHT22;7351;51.194;4.098;2023-05-10T02:08:13;19.70;99.90
14529;DHT22;7351;51.194;4.098;2023-05-10T02:10:41;19.70;99.90
14529;DHT22;7351;51.194;4.098;2023-05-10T02:13:10;19.70;99.90
14529;DHT22;7351;51.194;4.098;2023-05-10T02:15:38;19.70;99.90
14529;DHT22;7351;51.194;4.098;2023-05-10T02:18:08;19.70;99.90
14529;DHT22;7351;51.194;4.098;2023-05-10T02:20:37;19.70;99.90
14529;DHT22;7351;51.194;4.098;2023-05-10T02:23:05;19.70;99.90
14529;DHT22;7351;51.194;4.098;2023-05-10T02:25:34;19.70;99.90
14529;DHT22;7351;51.194;4.098;2023-05-10T02:28:03;19.70;99.90
14529;DHT22;7351;51.194;4.098;2023-05-10T02:30:31;19.70;99.90
14529;DHT22;7351;51.194;4.098;2023-05-10T02:32:59;19.70;99.90
14529;DHT22;7351;51.194;4.098;2023-05-10T02:35:28;19.80;99.90
14529;DHT22;7351;51.194;4.098;2023-05-10T02:37:56;19.80;99.90
14529;DHT22;7351;51.194;4.098;2023-05-10T02:40:26;19.70;99.90
14529;DHT22;7351;51.194;4.098;2023-05-10T02:42:56;19.70;99.90
14529;DHT22;7351;51.194;4.098;2023-05-10T02:45:27;19.70;99.90
14529;DHT22;7351;51.194;4.098;2023-05-10T02:47:55;19.70;99.90
14529;DHT22;7351;51.194;4.098;2023-05-10T02:50:25;19.70;99.90
14529;DHT22;7351;51.194;4.098;2023-05-10T02:52:59;19.70;99.90
14529;DHT22;7351;51.194;4.098;2023-05-10T02:55:31;19.70;99.90
14529;DHT22;7351;51.194;4.098;2023-05-10T02:58:01;19.70;99.90
14529;DHT22;7351;51.194;4.098;2023-05-10T03:00:28;19.70;99.90
14529;DHT22;7351;51.194;4.098;2023-05-10T03:02:55;19.70;99.90
14529;DHT22;7351;51.194;4.098;2023-05-10T03:05:22;19.70;99.90
14529;DHT22;7351;51.194;4.098;2023-05-10T03:07:49;19.60;99.90
14529;DHT22;7351;51.194;4.098;2023-05-10T03:10:18;19.70;99.90
14529;DHT22;7351;51.194;4.098;2023-05-10T03:13:01;19.70;99.90
14529;DHT22;7351;51.194;4.098;2023-05-10T03:15:37;19.70;99.90
14529;DHT22;7351;51.194;4.098;2023-05-10T03:18:09;19.70;99.90
14529;DHT22;7351;51.194;4.098;2023-05-10T03:20:41;19.70;99.90
14529;DHT22;7351;51.194;4.098;2023-05-10T03:23:13;19.70;99.90
14529;DHT22;7351;51.194;4.098;2023-05-10T03:25:42;19.70;99.90
14529;DHT22;7351;51.194;4.098;2023-05-10T03:28:10;19.70;99.90
14529;DHT22;7351;51.194;4.098;2023-05-10T03:30:38;19.60;99.90
14529;DHT22;7351;51.194;4.098;2023-05-10T03:33:06;19.60;99.90
14529;DHT22;7351;51.194;4.098;2023-05-10T03:35:33;19.60;99.90
14529;DHT22;7351;51.194;4.098;2023-05-10T03:38:00;19.60;99.90
14529;DHT22;7351;51.194;4.098;2023-05-10T03:40:27;19.60;99.90
14529;DHT22;7351;51.194;4.098;2023-05-10T03:42:59;19.60;99.90
14529;DHT22;7351;51.194;4.098;2023-05-10T03:45:26;19.60;99.90
14529;DHT22;7351;51.194;4.098;2023-05-10T03:47:53;19.60;99.90
14529;DHT22;7351;51.194;4.098;2023-05-10T03:50:21;19.60;99.90
14529;DHT22;7351;51.194;4.098;2023-05-10T03:52:47;19.60;99.90
14529;DHT22;7351;51.194;4.098;2023-05-10T03:55:15;19.60;99.90
14529;DHT22;7351;51.194;4.098;2023-05-10T03:57:42;19.60;99.90
14529;DHT22;7351;51.194;4.098;2023-05-10T04:00:11;19.60;99.90
14529;DHT22;7351;51.194;4.098;2023-05-10T04:02:38;19.60;99.90
14529;DHT22;7351;51.194;4.098;2023-05-10T04:05:05;19.60;99.90
14529;DHT22;7351;51.194;4.098;2023-05-10T04:07:32;19.60;99.90
14529;DHT22;7351;51.194;4.098;2023-05-10T04:09:59;19.60;99.90
14529;DHT22;7351;51.194;4.098;2023-05-10T04:12:26;19.60;99.90
14529;DHT22;7351;51.194;4.098;2023-05-10T04:14:53;19.60;99.90
14529;DHT22;7351;51.194;4.098;2023-05-10T04:17:21;19.50;99.90
14529;DHT22;7351;51.194;4.098;2023-05-10T04:19:48;19.60;99.90
14529;DHT22;7351;51.194;4.098;2023-05-10T04:22:18;19.50;99.90
14529;DHT22;7351;51.194;4.098;2023-05-10T04:24:45;19.50;99.90
14529;DHT22;7351;51.194;4.098;2023-05-10T04:27:12;19.50;99.90
14529;DHT22;7351;51.194;4.098;2023-05-10T04:29:39;19.50;99.90
14529;DHT22;7351;51.194;4.098;2023-05-10T04:32:07;19.50;99.90
14529;DHT22;7351;51.194;4.098;2023-05-10T04:34:37;19.50;99.90
14529;DHT22;7351;51.194;4.098;2023-05-10T04:37:03;19.50;99.90
14529;DHT22;7351;51.194;4.098;2023-05-10T04:39:30;19.50;99.90
14529;DHT22;7351;51.194;4.098;2023-05-10T04:41:57;19.50;99.90
14529;DHT22;7351;51.194;4.098;2023-05-10T04:44:24;19.50;99.90
14529;DHT22;7351;51.194;4.098;2023-05-10T04:46:51;19.50;99.90
14529;DHT22;7351;51.194;4.098;2023-05-10T04:49:18;19.50;99.90
14529;DHT22;7351;51.194;4.098;2023-05-10T04:51:46;19.50;99.90
14529;DHT22;7351;51.194;4.098;2023-05-10T04:54:13;19.50;99.90
14529;DHT22;7351;51.194;4.098;2023-05-10T04:56:40;19.50;99.90
14529;DHT22;7351;51.194;4.098;2023-05-10T04:59:07;19.50;99.90
14529;DHT22;7351;51.194;4.098;2023-05-10T05:01:34;19.50;99.90
14529;DHT22;7351;51.194;4.098;2023-05-10T05:04:01;19.50;99.90
14529;DHT22;7351;51.194;4.098;2023-05-10T05:06:28;19.50;99.90
14529;DHT22;7351;51.194;4.098;2023-05-10T05:08:56;19.50;99.90
14529;DHT22;7351;51.194;4.098;2023-05-10T05:11:23;19.50;99.90
14529;DHT22;7351;51.194;4.098;2023-05-10T05:13:50;19.50;99.90
14529;DHT22;7351;51.194;4.098;2023-05-10T05:16:17;19.60;99.90
14529;DHT22;7351;51.194;4.098;2023-05-10T05:18:44;19.60;99.90
14529;DHT22;7351;51.194;4.098;2023-05-10T05:21:14;19.60;99.90
14529;DHT22;7351;51.194;4.098;2023-05-10T05:23:42;19.60;99.90
14529;DHT22;7351;51.194;4.098;2023-05-10T05:26:10;19.60;99.90
14529;DHT22;7351;51.194;4.098;2023-05-10T05:28:38;19.50;99.90
14529;DHT22;7351;51.194;4.098;2023-05-10T05:31:05;19.50;99.90
14529;DHT22;7351;51.194;4.098;2023-05-10T05:33:32;19.50;99.90
14529;DHT22;7351;51.194;4.098;2023-05-10T05:36:00;19.50;99.90
14529;DHT22;7351;51.194;4.098;2023-05-10T05:38:27;19.50;99.90
14529;DHT22;7351;51.194;4.098;2023-05-10T05:40:54;19.50;99.90
14529;DHT22;7351;51.194;4.098;2023-05-10T05:43:23;19.50;99.90
14529;DHT22;7351;51.194;4.098;2023-05-10T05:45:52;19.50;99.90
14529;DHT22;7351;51.194;4.098;2023-05-10T05:48:19;19.50;99.90
14529;DHT22;7351;51.194;4.098;2023-05-10T05:50:46;19.50;99.90
14529;DHT22;7351;51.194;4.098;2023-05-10T05:53:13;19.50;99.90
14529;DHT22;7351;51.194;4.098;2023-05-10T05:55:40;19.50;99.90
14529;DHT22;7351;51.194;4.098;2023-05-10T05:58:09;19.50;99.90
14529;DHT22;7351;51.194;4.098;2023-05-10T06:00:37;19.50;99.90
14529;DHT22;7351;51.194;4.098;2023-05-10T06:03:04;19.50;99.90
14529;DHT22;7351;51.194;4.098;2023-05-10T06:05:31;19.50;99.90
14529;DHT22;7351;51.194;4.098;2023-05-10T06:07:59;19.50;99.90
14529;DHT22;7351;51.194;4.098;2023-05-10T06:10:26;19.50;99.90
14529;DHT22;7351;51.194;4.098;2023-05-10T06:12:53;19.50;99.90
14529;DHT22;7351;51.194;4.098;2023-05-10T06:15:20;19.50;99.90
14529;DHT22;7351;51.194;4.098;2023-05-10T06:17:48;19.50;99.90
14529;DHT22;7351;51.194;4.098;2023-05-10T06:20:16;19.50;99.90
14529;DHT22;7351;51.194;4.098;2023-05-10T06:22:43;19.50;99.90
14529;DHT22;7351;51.194;4.098;2023-05-10T06:25:10;19.40;99.90
14529;DHT22;7351;51.194;4.098;2023-05-10T06:27:37;19.40;99.90
14529;DHT22;7351;51.194;4.098;2023-05-10T06:30:05;19.50;99.90
14529;DHT22;7351;51.194;4.098;2023-05-10T06:32:33;19.50;99.90
14529;DHT22;7351;51.194;4.098;2023-05-10T06:35:02;19.50;99.90
14529;DHT22;7351;51.194;4.098;2023-05-10T06:37:29;19.50;99.90
14529;DHT22;7351;51.194;4.098;2023-05-10T06:39:56;19.50;99.90
14529;DHT22;7351;51.194;4.098;2023-05-10T06:42:22;19.50;99.90
14529;DHT22;7351;51.194;4.098;2023-05-10T06:44:51;19.50;99.90
14529;DHT22;7351;51.194;4.098;2023-05-10T06:47:17;19.40;99.90
14529;DHT22;7351;51.194;4.098;2023-05-10T06:49:44;19.50;99.90
14529;DHT22;7351;51.194;4.098;2023-05-10T06:52:13;19.50;99.90
14529;DHT22;7351;51.194;4.098;2023-05-10T06:54:40;19.40;99.90
14529;DHT22;7351;51.194;4.098;2023-05-10T06:57:06;19.50;99.90
14529;DHT22;7351;51.194;4.098;2023-05-10T06:59:33;19.50;99.90
14529;DHT22;7351;51.194;4.098;2023-05-10T07:02:01;19.40;99.90
14529;DHT22;7351;51.194;4.098;2023-05-10T07:04:29;19.40;99.90
14529;DHT22;7351;51.194;4.098;2023-05-10T07:06:56;19.40;99.90
14529;DHT22;7351;51.194;4.098;2023-05-10T07:09:24;19.40;99.90
14529;DHT22;7351;51.194;4.098;2023-05-10T07:11:52;19.40;99.90
14529;DHT22;7351;51.194;4.098;2023-05-10T07:14:19;19.50;99.90
14529;DHT22;7351;51.194;4.098;2023-05-10T07:16:45;19.50;99.90
14529;DHT22;7351;51.194;4.098;2023-05-10T07:19:12;19.50;99.90
14529;DHT22;7351;51.194;4.098;2023-05-10T07:21:39;19.60;99.90
14529;DHT22;7351;51.194;4.098;2023-05-10T07:24:08;19.60;99.90
14529;DHT22;7351;51.194;4.098;2023-05-10T07:26:37;19.60;99.90
14529;DHT22;7351;51.194;4.098;2023-05-10T07:29:04;19.60;99.90
14529;DHT22;7351;51.194;4.098;2023-05-10T07:31:31;19.60;99.90
14529;DHT22;7351;51.194;4.098;2023-05-10T07:33:58;19.60;99.90
14529;DHT22;7351;51.194;4.098;2023-05-10T07:36:25;19.60;99.90
14529;DHT22;7351;51.194;4.098;2023-05-10T07:38:52;19.60;99.90
14529;DHT22;7351;51.194;4.098;2023-05-10T07:41:19;19.70;99.90
14529;DHT22;7351;51.194;4.098;2023-05-10T07:43:47;19.70;99.90
14529;DHT22;7351;51.194;4.098;2023-05-10T07:46:14;19.60;99.90
14529;DHT22;7351;51.194;4.098;2023-05-10T07:48:42;19.70;99.90
14529;DHT22;7351;51.194;4.098;2023-05-10T07:51:08;19.70;99.90
14529;DHT22;7351;51.194;4.098;2023-05-10T07:53:36;19.70;99.90
14529;DHT22;7351;51.194;4.098;2023-05-10T07:56:22;19.70;99.90
14529;DHT22;7351;51.194;4.098;2023-05-10T07:58:52;19.70;99.90
14529;DHT22;7351;51.194;4.098;2023-05-10T08:01:19;19.70;99.90
14529;DHT22;7351;51.194;4.098;2023-05-10T08:03:46;19.70;99.90
14529;DHT22;7351;51.194;4.098;2023-05-10T08:06:14;19.80;99.90
14529;DHT22;7351;51.194;4.098;2023-05-10T08:08:41;19.80;99.90
14529;DHT22;7351;51.194;4.098;2023-05-10T08:11:08;19.80;99.90
14529;DHT22;7351;51.194;4.098;2023-05-10T08:13:35;19.80;99.90
14529;DHT22;7351;51.194;4.098;2023-05-10T08:16:03;19.80;99.90
14529;DHT22;7351;51.194;4.098;2023-05-10T08:18:30;19.80;99.90
14529;DHT22;7351;51.194;4.098;2023-05-10T08:20:57;19.80;99.90
14529;DHT22;7351;51.194;4.098;2023-05-10T08:23:24;19.90;99.90
14529;DHT22;7351;51.194;4.098;2023-05-10T08:25:51;19.90;99.90
14529;DHT22;7351;51.194;4.098;2023-05-10T08:28:18;19.90;99.90
14529;DHT22;7351;51.194;4.098;2023-05-10T08:30:45;19.90;99.90
14529;DHT22;7351;51.194;4.098;2023-05-10T08:33:13;20.00;99.90
14529;DHT22;7351;51.194;4.098;2023-05-10T08:35:40;19.90;99.90
14529;DHT22;7351;51.194;4.098;2023-05-10T08:38:08;19.90;99.90
14529;DHT22;7351;51.194;4.098;2023-05-10T08:40:37;19.90;99.90
14529;DHT22;7351;51.194;4.098;2023-05-10T08:43:06;20.00;99.90
14529;DHT22;7351;51.194;4.098;2023-05-10T08:45:38;20.00;99.90
14529;DHT22;7351;51.194;4.098;2023-05-10T08:48:07;20.00;99.90
14529;DHT22;7351;51.194;4.098;2023-05-10T08:50:36;20.00;99.90
14529;DHT22;7351;51.194;4.098;2023-05-10T08:53:06;20.00;99.90
14529;DHT22;7351;51.194;4.098;2023-05-10T08:55:36;20.00;99.90
14529;DHT22;7351;51.194;4.098;2023-05-10T08:58:04;20.00;99.90
14529;DHT22;7351;51.194;4.098;2023-05-10T09:00:31;20.10;99.90
14529;DHT22;7351;51.194;4.098;2023-05-10T09:02:59;20.00;99.90
14529;DHT22;7351;51.194;4.098;2023-05-10T09:05:26;20.00;99.90
14529;DHT22;7351;51.194;4.098;2023-05-10T09:07:54;20.00;99.90
14529;DHT22;7351;51.194;4.098;2023-05-10T09:10:21;19.90;99.90
14529;DHT22;7351;51.194;4.098;2023-05-10T09:12:51;19.90;99.90
14529;DHT22;7351;51.194;4.098;2023-05-10T09:15:19;19.90;99.90
14529;DHT22;7351;51.194;4.098;2023-05-10T09:17:47;20.00;99.90
14529;DHT22;7351;51.194;4.098;2023-05-10T09:20:15;20.00;99.90
14529;DHT22;7351;51.194;4.098;2023-05-10T09:22:44;20.00;99.90
14529;DHT22;7351;51.194;4.098;2023-05-10T09:25:14;20.10;99.90
14529;DHT22;7351;51.194;4.098;2023-05-10T09:27:44;20.10;99.90
14529;DHT22;7351;51.194;4.098;2023-05-10T09:30:15;20.10;99.90
14529;DHT22;7351;51.194;4.098;2023-05-10T09:32:44;20.10;99.90
14529;DHT22;7351;51.194;4.098;2023-05-10T09:35:13;20.10;99.90
14529;DHT22;7351;51.194;4.098;2023-05-10T09:37:41;20.10;99.90
14529;DHT22;7351;51.194;4.098;2023-05-10T09:40:13;20.10;99.90
14529;DHT22;7351;51.194;4.098;2023-05-10T09:42:42;20.00;99.90
14529;DHT22;7351;51.194;4.098;2023-05-10T09:45:09;20.10;99.90
14529;DHT22;7351;51.194;4.098;2023-05-10T09:47:36;20.10;99.90
14529;DHT22;7351;51.194;4.098;2023-05-10T09:50:04;20.10;99.90
14529;DHT22;7351;51.194;4.098;2023-05-10T09:52:46;20.10;99.90
14529;DHT22;7351;51.194;4.098;2023-05-10T09:55:15;20.10;99.90
14529;DHT22;7351;51.194;4.098;2023-05-10T09:57:42;20.10;99.90
14529;DHT22;7351;51.194;4.098;2023-05-10T10:00:09;20.20;99.90
14529;DHT22;7351;51.194;4.098;2023-05-10T10:02:38;20.20;99.90
14529;DHT22;7351;51.194;4.098;2023-05-10T10:05:07;20.20;99.90
14529;DHT22;7351;51.194;4.098;2023-05-10T10:07:34;20.30;99.90
14529;DHT22;7351;51.194;4.098;2023-05-10T10:10:01;20.30;99.90
14529;DHT22;7351;51.194;4.098;2023-05-10T10:12:31;20.40;99.90
14529;DHT22;7351;51.194;4.098;2023-05-10T10:14:59;20.40;99.90
14529;DHT22;7351;51.194;4.098;2023-05-10T10:17:27;20.40;99.90
14529;DHT22;7351;51.194;4.098;2023-05-10T10:19:55;20.40;99.90
14529;DHT22;7351;51.194;4.098;2023-05-10T10:22:23;20.40;99.90
14529;DHT22;7351;51.194;4.098;2023-05-10T10:24:51;20.30;99.90
14529;DHT22;7351;51.194;4.098;2023-05-10T10:27:23;20.30;99.90
14529;DHT22;7351;51.194;4.098;2023-05-10T10:30:04;20.30;99.90
14529;DHT22;7351;51.194;4.098;2023-05-10T10:32:42;20.30;99.90
14529;DHT22;7351;51.194;4.098;2023-05-10T10:35:11;20.30;99.90
14529;DHT22;7351;51.194;4.098;2023-05-10T10:37:44;20.30;99.90
14529;DHT22;7351;51.194;4.098;2023-05-10T10:40:25;20.30;99.90
14529;DHT22;7351;51.194;4.098;2023-05-10T10:42:53;20.30;99.90
14529;DHT22;7351;51.194;4.098;2023-05-10T10:45:23;20.20;99.90
14529;DHT22;7351;51.194;4.098;2023-05-10T10:50:43;20.30;99.90
14529;DHT22;7351;51.194;4.098;2023-05-10T10:53:11;20.30;99.90
14529;DHT22;7351;51.194;4.098;2023-05-10T10:55:46;20.30;99.90
14529;DHT22;7351;51.194;4.098;2023-05-10T10:58:28;20.30;99.90
14529;DHT22;7351;51.194;4.098;2023-05-10T11:01:13;20.30;99.90
14529;DHT22;7351;51.194;4.098;2023-05-10T11:04:16;20.30;99.90
14529;DHT22;7351;51.194;4.098;2023-05-10T11:06:41;20.40;99.90
14529;DHT22;7351;51.194;4.098;2023-05-10T11:09:11;20.40;99.90
14529;DHT22;7351;51.194;4.098;2023-05-10T11:11:49;20.40;99.90
14529;DHT22;7351;51.194;4.098;2023-05-10T11:14:21;20.50;99.90
14529;DHT22;7351;51.194;4.098;2023-05-10T11:16:50;20.50;99.90
14529;DHT22;7351;51.194;4.098;2023-05-10T11:19:17;20.60;99.90
14529;DHT22;7351;51.194;4.098;2023-05-10T11:21:46;20.60;99.90
14529;DHT22;7351;51.194;4.098;2023-05-10T11:24:16;20.70;99.90
14529;DHT22;7351;51.194;4.098;2023-05-10T11:26:43;20.70;99.90
14529;DHT22;7351;51.194;4.098;2023-05-10T11:29:12;20.70;99.90
14529;DHT22;7351;51.194;4.098;2023-05-10T11:31:43;20.70;99.90
14529;DHT22;7351;51.194;4.098;2023-05-10T11:34:23;20.70;99.90
14529;DHT22;7351;51.194;4.098;2023-05-10T11:36:51;20.70;99.90
14529;DHT22;7351;51.194;4.098;2023-05-10T11:39:19;20.80;99.90
14529;DHT22;7351;51.194;4.098;2023-05-10T11:41:48;20.80;99.90
14529;DHT22;7351;51.194;4.098;2023-05-10T11:44:15;20.70;99.90
14529;DHT22;7351;51.194;4.098;2023-05-10T11:46:42;20.70;99.90
14529;DHT22;7351;51.194;4.098;2023-05-10T11:49:10;20.70;99.90
14529;DHT22;7351;51.194;4.098;2023-05-10T11:51:40;20.60;99.90
14529;DHT22;7351;51.194;4.098;2023-05-10T11:54:10;20.60;99.90
14529;DHT22;7351;51.194;4.098;2023-05-10T11:56:37;20.60;99.90
14529;DHT22;7351;51.194;4.098;2023-05-10T11:59:04;20.60;99.90
14529;DHT22;7351;51.194;4.098;2023-05-10T12:01:31;20.60;99.90
14529;DHT22;7351;51.194;4.098;2023-05-10T12:03:59;20.70;99.90
14529;DHT22;7351;51.194;4.098;2023-05-10T12:06:27;20.70;99.90
14529;DHT22;7351;51.194;4.098;2023-05-10T12:08:56;20.70;99.90
14529;DHT22;7351;51.194;4.098;2023-05-10T12:11:25;20.70;99.90
14529;DHT22;7351;51.194;4.098;2023-05-10T12:13:53;20.70;99.90
14529;DHT22;7351;51.194;4.098;2023-05-10T12:16:21;20.70;99.90
14529;DHT22;7351;51.194;4.098;2023-05-10T12:18:49;20.70;99.90
14529;DHT22;7351;51.194;4.098;2023-05-10T12:21:17;20.70;99.90
14529;DHT22;7351;51.194;4.098;2023-05-10T12:23:46;20.60;99.90
14529;DHT22;7351;51.194;4.098;2023-05-10T12:26:14;20.60;99.90
14529;DHT22;7351;51.194;4.098;2023-05-10T12:28:42;20.60;99.90
14529;DHT22;7351;51.194;4.098;2023-05-10T12:31:08;20.60;99.90
14529;DHT22;7351;51.194;4.098;2023-05-10T12:33:36;20.60;99.90
14529;DHT22;7351;51.194;4.098;2023-05-10T12:36:07;20.60;99.90
14529;DHT22;7351;51.194;4.098;2023-05-10T12:38:36;20.60;99.90
14529;DHT22;7351;51.194;4.098;2023-05-10T12:41:04;20.60;99.90
14529;DHT22;7351;51.194;4.098;2023-05-10T12:43:34;20.50;99.90
14529;DHT22;7351;51.194;4.098;2023-05-10T12:46:05;20.60;99.90
14529;DHT22;7351;51.194;4.098;2023-05-10T12:48:32;20.50;99.90
14529;DHT22;7351;51.194;4.098;2023-05-10T12:50:59;20.50;99.90
14529;DHT22;7351;51.194;4.098;2023-05-10T12:53:26;20.50;99.90
14529;DHT22;7351;51.194;4.098;2023-05-10T12:55:53;20.50;99.90
14529;DHT22;7351;51.194;4.098;2023-05-10T12:58:20;20.50;99.90
14529;DHT22;7351;51.194;4.098;2023-05-10T13:00:51;20.50;99.90
14529;DHT22;7351;51.194;4.098;2023-05-10T13:03:19;20.50;99.90
14529;DHT22;7351;51.194;4.098;2023-05-10T13:05:45;20.50;99.90
14529;DHT22;7351;51.194;4.098;2023-05-10T13:08:12;20.50;99.90
14529;DHT22;7351;51.194;4.098;2023-05-10T13:10:39;20.50;99.90
14529;DHT22;7351;51.194;4.098;2023-05-10T13:13:06;20.50;99.90
14529;DHT22;7351;51.194;4.098;2023-05-10T13:15:37;20.50;99.90
14529;DHT22;7351;51.194;4.098;2023-05-10T13:18:05;20.50;99.90
14529;DHT22;7351;51.194;4.098;2023-05-10T13:20:32;20.50;99.90
14529;DHT22;7351;51.194;4.098;2023-05-10T13:22:59;20.50;99.90
14529;DHT22;7351;51.194;4.098;2023-05-10T13:25:26;20.50;99.90
14529;DHT22;7351;51.194;4.098;2023-05-10T13:27:53;20.50;99.90
14529;DHT22;7351;51.194;4.098;2023-05-10T13:30:20;20.50;99.90
14529;DHT22;7351;51.194;4.098;2023-05-10T13:32:47;20.50;99.90
14529;DHT22;7351;51.194;4.098;2023-05-10T13:35:17;20.50;99.90
14529;DHT22;7351;51.194;4.098;2023-05-10T13:37:44;20.50;99.90
14529;DHT22;7351;51.194;4.098;2023-05-10T13:40:11;20.50;99.90
14529;DHT22;7351;51.194;4.098;2023-05-10T13:42:39;20.50;99.90
14529;DHT22;7351;51.194;4.098;2023-05-10T13:45:07;20.50;99.90
14529;DHT22;7351;51.194;4.098;2023-05-10T13:47:34;20.50;99.90
14529;DHT22;7351;51.194;4.098;2023-05-10T13:50:01;20.50;99.90
14529;DHT22;7351;51.194;4.098;2023-05-10T13:52:30;20.50;99.90
14529;DHT22;7351;51.194;4.098;2023-05-10T13:54:57;20.50;99.90
14529;DHT22;7351;51.194;4.098;2023-05-10T13:57:24;20.50;99.90
14529;DHT22;7351;51.194;4.098;2023-05-10T13:59:51;20.50;99.90
14529;DHT22;7351;51.194;4.098;2023-05-10T14:02:18;20.50;99.90
14529;DHT22;7351;51.194;4.098;2023-05-10T14:04:45;20.50;99.90
14529;DHT22;7351;51.194;4.098;2023-05-10T14:07:12;20.50;99.90
14529;DHT22;7351;51.194;4.098;2023-05-10T14:09:40;20.60;99.90
14529;DHT22;7351;51.194;4.098;2023-05-10T14:12:07;20.60;99.90
14529;DHT22;7351;51.194;4.098;2023-05-10T14:14:34;20.60;99.90
14529;DHT22;7351;51.194;4.098;2023-05-10T14:17:01;20.60;99.90
14529;DHT22;7351;51.194;4.098;2023-05-10T14:19:28;20.60;99.90
14529;DHT22;7351;51.194;4.098;2023-05-10T14:21:58;20.60;99.90
14529;DHT22;7351;51.194;4.098;2023-05-10T14:24:25;20.60;99.90
14529;DHT22;7351;51.194;4.098;2023-05-10T14:26:53;20.60;99.90
14529;DHT22;7351;51.194;4.098;2023-05-10T14:29:20;20.50;99.90
14529;DHT22;7351;51.194;4.098;2023-05-10T14:31:47;20.50;99.90
14529;DHT22;7351;51.194;4.098;2023-05-10T14:34:14;20.50;99.90
14529;DHT22;7351;51.194;4.098;2023-05-10T14:36:41;20.40;99.90
14529;DHT22;7351;51.194;4.098;2023-05-10T14:39:08;20.40;99.90
14529;DHT22;7351;51.194;4.098;2023-05-10T14:41:38;20.40;99.90
14529;DHT22;7351;51.194;4.098;2023-05-10T14:44:07;20.40;99.90
14529;DHT22;7351;51.194;4.098;2023-05-10T14:46:35;20.40;99.90
14529;DHT22;7351;51.194;4.098;2023-05-10T14:49:02;20.40;99.90
14529;DHT22;7351;51.194;4.098;2023-05-10T14:51:29;20.40;99.90
14529;DHT22;7351;51.194;4.098;2023-05-10T14:53:57;20.40;99.90
14529;DHT22;7351;51.194;4.098;2023-05-10T14:56:25;20.30;99.90
14529;DHT22;7351;51.194;4.098;2023-05-10T14:58:53;20.30;99.90
14529;DHT22;7351;51.194;4.098;2023-05-10T15:01:21;20.40;99.90
14529;DHT22;7351;51.194;4.098;2023-05-10T15:03:48;20.40;99.90
14529;DHT22;7351;51.194;4.098;2023-05-10T15:06:16;20.30;99.90
14529;DHT22;7351;51.194;4.098;2023-05-10T15:08:43;20.30;99.90
14529;DHT22;7351;51.194;4.098;2023-05-10T15:11:09;20.30;99.90
14529;DHT22;7351;51.194;4.098;2023-05-10T15:13:36;20.30;99.90
14529;DHT22;7351;51.194;4.098;2023-05-10T15:16:04;20.30;99.90
14529;DHT22;7351;51.194;4.098;2023-05-10T15:18:32;20.30;99.90
14529;DHT22;7351;51.194;4.098;2023-05-10T15:20:59;20.30;99.90
14529;DHT22;7351;51.194;4.098;2023-05-10T15:23:26;20.30;99.90
14529;DHT22;7351;51.194;4.098;2023-05-10T15:25:54;20.30;99.90
14529;DHT22;7351;51.194;4.098;2023-05-10T15:28:21;20.40;99.90
14529;DHT22;7351;51.194;4.098;2023-05-10T15:30:48;20.30;99.90
14529;DHT22;7351;51.194;4.098;2023-05-10T15:33:15;20.30;99.90
14529;DHT22;7351;51.194;4.098;2023-05-10T15:35:48;20.30;99.90
14529;DHT22;7351;51.194;4.098;2023-05-10T15:38:15;20.30;99.90
14529;DHT22;7351;51.194;4.098;2023-05-10T15:40:42;20.30;99.90
14529;DHT22;7351;51.194;4.098;2023-05-10T15:43:09;20.20;99.90
14529;DHT22;7351;51.194;4.098;2023-05-10T15:45:36;20.20;99.90
14529;DHT22;7351;51.194;4.098;2023-05-10T15:48:03;20.20;99.90
14529;DHT22;7351;51.194;4.098;2023-05-10T15:50:30;20.20;99.90
14529;DHT22;7351;51.194;4.098;2023-05-10T15:52:58;20.20;99.90
14529;DHT22;7351;51.194;4.098;2023-05-10T15:55:25;20.20;99.90
14529;DHT22;7351;51.194;4.098;2023-05-10T15:57:52;20.20;99.90
14529;DHT22;7351;51.194;4.098;2023-05-10T16:00:19;20.20;99.90
14529;DHT22;7351;51.194;4.098;2023-05-10T16:02:46;20.10;99.90
14529;DHT22;7351;51.194;4.098;2023-05-10T16:05:13;20.20;99.90
14529;DHT22;7351;51.194;4.098;2023-05-10T16:07:41;20.20;99.90
14529;DHT22;7351;51.194;4.098;2023-05-10T16:10:10;20.10;99.90
14529;DHT22;7351;51.194;4.098;2023-05-10T16:12:37;20.20;99.90
14529;DHT22;7351;51.194;4.098;2023-05-10T16:15:06;20.10;99.90
14529;DHT22;7351;51.194;4.098;2023-05-10T16:17:33;20.20;99.90
14529;DHT22;7351;51.194;4.098;2023-05-10T16:20:00;20.10;99.90
14529;DHT22;7351;51.194;4.098;2023-05-10T16:22:27;20.10;99.90
14529;DHT22;7351;51.194;4.098;2023-05-10T16:24:55;20.20;99.90
14529;DHT22;7351;51.194;4.098;2023-05-10T16:27:23;20.20;99.90
14529;DHT22;7351;51.194;4.098;2023-05-10T16:29:53;20.10;99.90
14529;DHT22;7351;51.194;4.098;2023-05-10T16:32:20;20.10;99.90
14529;DHT22;7351;51.194;4.098;2023-05-10T16:34:47;20.10;99.90
14529;DHT22;7351;51.194;4.098;2023-05-10T16:37:14;20.10;99.90